Rochester, MA (02770)

3:39 AM EST on December 04, 2016 (GMT -0500)
Rose Point | | Change Station

Elev 25 ft 41.74 °N, 70.75 °W | Updated 13 seconds ago

Clear
Clear
31.8 °F
Feels Like 32 °F
N
2.0
Wind Variable Wind from WNW
Gusts 5.0 mph

Today
High -- | Low -- °F
--% Chance of Precip.
Yesterday
High -- | Low -- °F
Precip. -- in
Pressure 30.12 in
Visibility 10.0 miles
Clouds Clear
Windchill 32 °F
Dew Point 24 °F
Humidity 73%
Rainfall 0.00 in
Snow Depth Not available.
6:54 AM 4:12 PM
Waxing Crescent, 21% visible
METAR KEWB 040753Z AUTO 28006KT 10SM CLR M01/M05 A3011 RMK AO2 SLP198 T10061050
Pressure 30.12 in
Visibility 10.0 miles
Clouds Clear
Windchill 32 °F
Dew Point 24 °F
Humidity 73%
Rainfall 0.00 in
Snow Depth Not available.
6:54 AM 4:12 PM
Waxing Crescent, 21% visible
METAR KEWB 040753Z AUTO 28006KT 10SM CLR M01/M05 A3011 RMK AO2 SLP198 T10061050

10-Day Weather Forecast

Almanac

Astronomy

Dec. 04, 2016 Rise Set
Actual Time
Civil Twilight
Nautical Twilight
Astronomical Twilight
Moon
Length of Visible Light
Length of Day
Tomorrow will be .
, % of the Moon is Illuminated

Today's Extremes

State Highs State Lows

Community

WunderPhotos

Upload Photos

1,955,587 photos uploaded!

WunderBlog® & News

Nearby

Air Quality

  Air Quality AQ Index Pollutant
Not available.

Snow Depth

Station Depth Elevation

Earthquake Activity

City Distance Mag. Time & Date
Minimum magnitude displayed is 2.5.

Coastal Water Temperatures

Place Temperature

Stations

Nearby Weather Stations

Station Location Temp. Windchill Dew Point Humidity Wind Precip. Elev Updated Type
                   

Watches & Warnings

There are currently no watches in effect.